sensor_id;sensor_type;location;lat;lon;timestamp;P1;durP1;ratioP1;P2;durP2;ratioP2
20593;SDS011;10455;48.732;10.266;2022-09-04T00:03:02;5.50;;;5.00;;
20593;SDS011;10455;48.732;10.266;2022-09-04T00:08:29;7.43;;;5.70;;
20593;SDS011;10455;48.732;10.266;2022-09-04T00:13:40;46.47;;;9.30;;
20593;SDS011;10455;48.732;10.266;2022-09-04T00:18:48;17.23;;;8.20;;
20593;SDS011;10455;48.732;10.266;2022-09-04T00:23:59;6.90;;;6.20;;
20593;SDS011;10455;48.732;10.266;2022-09-04T00:29:07;13.43;;;9.97;;
20593;SDS011;10455;48.732;10.266;2022-09-04T00:34:18;15.40;;;10.27;;
20593;SDS011;10455;48.732;10.266;2022-09-04T00:39:34;9.73;;;7.37;;
20593;SDS011;10455;48.732;10.266;2022-09-04T00:44:46;6.30;;;5.67;;
20593;SDS011;10455;48.732;10.266;2022-09-04T00:50:06;7.47;;;6.43;;
20593;SDS011;10455;48.732;10.266;2022-09-04T00:55:39;6.53;;;5.70;;
20593;SDS011;10455;48.732;10.266;2022-09-04T01:00:51;9.33;;;7.43;;
20593;SDS011;10455;48.732;10.266;2022-09-04T01:11:29;8.03;;;7.23;;
20593;SDS011;10455;48.732;10.266;2022-09-04T01:16:40;10.83;;;7.93;;
20593;SDS011;10455;48.732;10.266;2022-09-04T01:21:52;10.47;;;8.17;;
20593;SDS011;10455;48.732;10.266;2022-09-04T01:27:12;6.60;;;6.00;;
20593;SDS011;10455;48.732;10.266;2022-09-04T01:32:23;6.20;;;5.70;;
20593;SDS011;10455;48.732;10.266;2022-09-04T01:37:39;6.53;;;5.83;;
20593;SDS011;10455;48.732;10.266;2022-09-04T01:42:50;6.77;;;5.70;;
20593;SDS011;10455;48.732;10.266;2022-09-04T01:47:56;5.87;;;5.37;;
20593;SDS011;10455;48.732;10.266;2022-09-04T01:53:05;5.43;;;4.93;;
20593;SDS011;10455;48.732;10.266;2022-09-04T01:58:21;4.70;;;4.23;;
20593;SDS011;10455;48.732;10.266;2022-09-04T02:03:33;4.63;;;4.13;;
20593;SDS011;10455;48.732;10.266;2022-09-04T02:08:55;5.17;;;4.40;;
20593;SDS011;10455;48.732;10.266;2022-09-04T02:14:12;6.63;;;4.77;;
20593;SDS011;10455;48.732;10.266;2022-09-04T02:19:25;5.37;;;4.30;;
20593;SDS011;10455;48.732;10.266;2022-09-04T02:24:36;4.73;;;4.00;;
20593;SDS011;10455;48.732;10.266;2022-09-04T02:29:50;6.63;;;4.43;;
20593;SDS011;10455;48.732;10.266;2022-09-04T02:35:00;6.40;;;4.10;;
20593;SDS011;10455;48.732;10.266;2022-09-04T02:40:08;6.13;;;5.53;;
20593;SDS011;10455;48.732;10.266;2022-09-04T02:45:20;8.97;;;7.30;;
20593;SDS011;10455;48.732;10.266;2022-09-04T02:50:37;8.47;;;7.40;;
20593;SDS011;10455;48.732;10.266;2022-09-04T02:55:55;8.87;;;7.90;;
20593;SDS011;10455;48.732;10.266;2022-09-04T03:01:10;12.17;;;9.70;;
20593;SDS011;10455;48.732;10.266;2022-09-04T03:06:19;5.63;;;4.73;;
20593;SDS011;10455;48.732;10.266;2022-09-04T03:11:28;4.50;;;4.10;;
20593;SDS011;10455;48.732;10.266;2022-09-04T03:16:39;6.17;;;5.00;;
20593;SDS011;10455;48.732;10.266;2022-09-04T03:21:47;10.97;;;7.70;;
20593;SDS011;10455;48.732;10.266;2022-09-04T03:26:54;22.80;;;11.37;;
20593;SDS011;10455;48.732;10.266;2022-09-04T03:32:04;6.03;;;5.10;;
20593;SDS011;10455;48.732;10.266;2022-09-04T03:37:19;16.57;;;7.13;;
20593;SDS011;10455;48.732;10.266;2022-09-04T03:42:33;19.80;;;10.03;;
20593;SDS011;10455;48.732;10.266;2022-09-04T03:47:44;35.83;;;12.77;;
20593;SDS011;10455;48.732;10.266;2022-09-04T03:52:59;15.83;;;9.77;;
20593;SDS011;10455;48.732;10.266;2022-09-04T03:58:11;22.63;;;12.23;;
20593;SDS011;10455;48.732;10.266;2022-09-04T04:03:29;27.63;;;13.40;;
20593;SDS011;10455;48.732;10.266;2022-09-04T04:08:54;25.37;;;13.40;;
20593;SDS011;10455;48.732;10.266;2022-09-04T04:14:16;22.50;;;12.63;;
20593;SDS011;10455;48.732;10.266;2022-09-04T04:19:40;48.47;;;18.23;;
20593;SDS011;10455;48.732;10.266;2022-09-04T04:25:05;24.30;;;13.77;;
20593;SDS011;10455;48.732;10.266;2022-09-04T04:30:24;29.03;;;16.03;;
20593;SDS011;10455;48.732;10.266;2022-09-04T04:35:33;29.83;;;15.20;;
20593;SDS011;10455;48.732;10.266;2022-09-04T04:40:50;16.53;;;10.73;;
20593;SDS011;10455;48.732;10.266;2022-09-04T04:46:06;24.23;;;13.50;;
20593;SDS011;10455;48.732;10.266;2022-09-04T04:57:02;18.67;;;12.30;;
20593;SDS011;10455;48.732;10.266;2022-09-04T05:02:13;21.37;;;13.63;;
20593;SDS011;10455;48.732;10.266;2022-09-04T05:07:26;26.40;;;14.70;;
20593;SDS011;10455;48.732;10.266;2022-09-04T05:12:44;22.53;;;12.80;;
20593;SDS011;10455;48.732;10.266;2022-09-04T05:18:04;19.60;;;13.33;;
20593;SDS011;10455;48.732;10.266;2022-09-04T05:23:15;20.93;;;15.10;;
20593;SDS011;10455;48.732;10.266;2022-09-04T05:28:28;9.90;;;8.70;;
20593;SDS011;10455;48.732;10.266;2022-09-04T05:33:37;8.27;;;7.35;;
20593;SDS011;10455;48.732;10.266;2022-09-04T05:38:49;6.03;;;5.43;;
20593;SDS011;10455;48.732;10.266;2022-09-04T05:44:01;5.32;;;4.75;;
20593;SDS011;10455;48.732;10.266;2022-09-04T05:49:30;4.68;;;4.28;;
20593;SDS011;10455;48.732;10.266;2022-09-04T05:54:50;3.75;;;3.45;;
20593;SDS011;10455;48.732;10.266;2022-09-04T06:00:10;3.90;;;3.60;;
20593;SDS011;10455;48.732;10.266;2022-09-04T06:05:21;3.90;;;3.50;;
20593;SDS011;10455;48.732;10.266;2022-09-04T06:10:34;4.80;;;4.40;;
20593;SDS011;10455;48.732;10.266;2022-09-04T06:15:51;3.40;;;3.10;;
20593;SDS011;10455;48.732;10.266;2022-09-04T06:21:14;3.22;;;3.03;;
20593;SDS011;10455;48.732;10.266;2022-09-04T06:26:59;2.63;;;2.42;;
20593;SDS011;10455;48.732;10.266;2022-09-04T06:38:01;2.83;;;2.63;;
20593;SDS011;10455;48.732;10.266;2022-09-04T06:43:22;2.15;;;1.95;;
20593;SDS011;10455;48.732;10.266;2022-09-04T06:48:36;2.53;;;2.33;;
20593;SDS011;10455;48.732;10.266;2022-09-04T06:53:52;2.40;;;2.20;;
20593;SDS011;10455;48.732;10.266;2022-09-04T06:59:16;4.13;;;2.17;;
20593;SDS011;10455;48.732;10.266;2022-09-04T07:04:40;1.90;;;1.80;;
20593;SDS011;10455;48.732;10.266;2022-09-04T07:09:51;2.33;;;2.08;;
20593;SDS011;10455;48.732;10.266;2022-09-04T07:20:30;1.88;;;1.70;;
20593;SDS011;10455;48.732;10.266;2022-09-04T07:25:38;1.63;;;1.52;;
20593;SDS011;10455;48.732;10.266;2022-09-04T07:30:50;1.90;;;1.80;;
20593;SDS011;10455;48.732;10.266;2022-09-04T07:35:58;2.22;;;1.63;;
20593;SDS011;10455;48.732;10.266;2022-09-04T07:41:09;2.65;;;1.85;;
20593;SDS011;10455;48.732;10.266;2022-09-04T07:46:18;1.70;;;1.60;;
20593;SDS011;10455;48.732;10.266;2022-09-04T07:51:31;1.83;;;1.73;;
20593;SDS011;10455;48.732;10.266;2022-09-04T07:56:43;1.88;;;1.73;;
20593;SDS011;10455;48.732;10.266;2022-09-04T08:02:09;2.13;;;2.00;;
20593;SDS011;10455;48.732;10.266;2022-09-04T08:07:37;3.75;;;1.83;;
20593;SDS011;10455;48.732;10.266;2022-09-04T08:13:20;1.60;;;1.50;;
20593;SDS011;10455;48.732;10.266;2022-09-04T08:18:43;2.28;;;1.80;;
20593;SDS011;10455;48.732;10.266;2022-09-04T08:29:56;1.77;;;1.58;;
20593;SDS011;10455;48.732;10.266;2022-09-04T08:35:10;1.92;;;1.58;;
20593;SDS011;10455;48.732;10.266;2022-09-04T08:46:11;17.30;;;7.28;;
20593;SDS011;10455;48.732;10.266;2022-09-04T08:57:18;2.65;;;1.85;;
20593;SDS011;10455;48.732;10.266;2022-09-04T09:08:34;1.70;;;1.60;;
20593;SDS011;10455;48.732;10.266;2022-09-04T09:14:25;1.48;;;1.38;;
20593;SDS011;10455;48.732;10.266;2022-09-04T09:19:50;1.45;;;1.35;;
20593;SDS011;10455;48.732;10.266;2022-09-04T09:25:13;1.35;;;1.25;;
20593;SDS011;10455;48.732;10.266;2022-09-04T09:30:20;1.60;;;1.40;;
20593;SDS011;10455;48.732;10.266;2022-09-04T09:41:24;2.38;;;1.50;;
20593;SDS011;10455;48.732;10.266;2022-09-04T09:52:46;1.60;;;1.50;;
20593;SDS011;10455;48.732;10.266;2022-09-04T09:58:14;1.67;;;1.58;;
20593;SDS011;10455;48.732;10.266;2022-09-04T10:04:02;2.00;;;1.50;;
20593;SDS011;10455;48.732;10.266;2022-09-04T10:15:15;1.95;;;1.85;;
20593;SDS011;10455;48.732;10.266;2022-09-04T10:20:48;1.60;;;1.50;;
20593;SDS011;10455;48.732;10.266;2022-09-04T10:31:59;2.05;;;1.73;;
20593;SDS011;10455;48.732;10.266;2022-09-04T10:37:30;1.70;;;1.52;;
20593;SDS011;10455;48.732;10.266;2022-09-04T10:42:53;1.77;;;1.67;;
20593;SDS011;10455;48.732;10.266;2022-09-04T10:48:16;3.53;;;1.95;;
20593;SDS011;10455;48.732;10.266;2022-09-04T10:53:44;2.00;;;1.67;;
20593;SDS011;10455;48.732;10.266;2022-09-04T10:59:09;1.60;;;1.50;;
20593;SDS011;10455;48.732;10.266;2022-09-04T11:04:40;1.52;;;1.42;;
20593;SDS011;10455;48.732;10.266;2022-09-04T11:15:38;1.65;;;1.42;;
20593;SDS011;10455;48.732;10.266;2022-09-04T11:26:56;1.70;;;1.60;;
20593;SDS011;10455;48.732;10.266;2022-09-04T11:32:34;2.35;;;1.33;;
20593;SDS011;10455;48.732;10.266;2022-09-04T11:38:08;2.17;;;1.38;;
20593;SDS011;10455;48.732;10.266;2022-09-04T11:43:24;1.75;;;1.20;;
20593;SDS011;10455;48.732;10.266;2022-09-04T11:48:52;1.83;;;1.30;;
20593;SDS011;10455;48.732;10.266;2022-09-04T11:54:18;1.73;;;1.33;;
20593;SDS011;10455;48.732;10.266;2022-09-04T11:59:42;1.50;;;1.40;;
20593;SDS011;10455;48.732;10.266;2022-09-04T12:05:12;1.50;;;1.40;;
20593;SDS011;10455;48.732;10.266;2022-09-04T12:10:46;2.22;;;1.50;;
20593;SDS011;10455;48.732;10.266;2022-09-04T12:16:28;2.03;;;1.38;;
20593;SDS011;10455;48.732;10.266;2022-09-04T12:33:55;1.52;;;1.40;;
20593;SDS011;10455;48.732;10.266;2022-09-04T12:44:46;1.30;;;1.20;;
20593;SDS011;10455;48.732;10.266;2022-09-04T12:50:05;1.60;;;1.50;;
20593;SDS011;10455;48.732;10.266;2022-09-04T12:55:28;1.70;;;1.30;;
20593;SDS011;10455;48.732;10.266;2022-09-04T13:00:46;1.40;;;1.30;;
20593;SDS011;10455;48.732;10.266;2022-09-04T13:06:00;1.38;;;1.27;;
20593;SDS011;10455;48.732;10.266;2022-09-04T13:11:17;1.70;;;1.20;;
20593;SDS011;10455;48.732;10.266;2022-09-04T13:16:39;2.10;;;1.30;;
20593;SDS011;10455;48.732;10.266;2022-09-04T13:21:53;1.65;;;1.45;;
20593;SDS011;10455;48.732;10.266;2022-09-04T13:27:14;4.03;;;3.03;;
20593;SDS011;10455;48.732;10.266;2022-09-04T13:32:29;1.48;;;1.38;;
20593;SDS011;10455;48.732;10.266;2022-09-04T13:37:58;1.30;;;1.20;;
20593;SDS011;10455;48.732;10.266;2022-09-04T13:43:28;1.30;;;1.20;;
20593;SDS011;10455;48.732;10.266;2022-09-04T13:48:52;1.40;;;1.30;;
20593;SDS011;10455;48.732;10.266;2022-09-04T13:54:03;1.30;;;1.20;;
20593;SDS011;10455;48.732;10.266;2022-09-04T13:59:11;1.30;;;1.20;;
20593;SDS011;10455;48.732;10.266;2022-09-04T14:04:17;1.50;;;1.40;;
20593;SDS011;10455;48.732;10.266;2022-09-04T14:09:26;1.75;;;1.40;;
20593;SDS011;10455;48.732;10.266;2022-09-04T14:20:08;1.58;;;1.40;;
20593;SDS011;10455;48.732;10.266;2022-09-04T14:25:18;1.80;;;1.33;;
20593;SDS011;10455;48.732;10.266;2022-09-04T14:30:26;1.67;;;1.58;;
20593;SDS011;10455;48.732;10.266;2022-09-04T14:35:34;1.50;;;1.40;;
20593;SDS011;10455;48.732;10.266;2022-09-04T14:40:47;1.85;;;1.50;;
20593;SDS011;10455;48.732;10.266;2022-09-04T14:46:00;1.40;;;1.30;;
20593;SDS011;10455;48.732;10.266;2022-09-04T14:51:13;1.10;;;1.00;;
20593;SDS011;10455;48.732;10.266;2022-09-04T14:56:21;1.83;;;1.30;;
20593;SDS011;10455;48.732;10.266;2022-09-04T15:01:31;5.32;;;1.55;;
20593;SDS011;10455;48.732;10.266;2022-09-04T15:06:40;2.03;;;1.40;;
20593;SDS011;10455;48.732;10.266;2022-09-04T15:11:45;1.35;;;1.25;;
20593;SDS011;10455;48.732;10.266;2022-09-04T15:16:50;1.73;;;1.30;;
20593;SDS011;10455;48.732;10.266;2022-09-04T15:21:56;1.60;;;1.30;;
20593;SDS011;10455;48.732;10.266;2022-09-04T15:27:07;1.50;;;1.40;;
20593;SDS011;10455;48.732;10.266;2022-09-04T15:32:18;1.52;;;1.30;;
20593;SDS011;10455;48.732;10.266;2022-09-04T15:37:23;1.23;;;1.13;;
20593;SDS011;10455;48.732;10.266;2022-09-04T15:42:36;1.38;;;1.27;;
20593;SDS011;10455;48.732;10.266;2022-09-04T15:47:53;1.42;;;1.33;;
20593;SDS011;10455;48.732;10.266;2022-09-04T15:53:20;1.40;;;1.30;;
20593;SDS011;10455;48.732;10.266;2022-09-04T15:58:29;2.25;;;1.30;;
20593;SDS011;10455;48.732;10.266;2022-09-04T16:03:45;3.60;;;1.48;;
20593;SDS011;10455;48.732;10.266;2022-09-04T16:08:55;1.85;;;1.40;;
20593;SDS011;10455;48.732;10.266;2022-09-04T16:14:04;1.73;;;1.50;;
20593;SDS011;10455;48.732;10.266;2022-09-04T16:19:13;2.65;;;1.30;;
20593;SDS011;10455;48.732;10.266;2022-09-04T16:24:26;1.50;;;1.40;;
20593;SDS011;10455;48.732;10.266;2022-09-04T16:29:35;1.95;;;1.70;;
20593;SDS011;10455;48.732;10.266;2022-09-04T16:34:43;2.58;;;1.30;;
20593;SDS011;10455;48.732;10.266;2022-09-04T16:39:58;1.52;;;1.42;;
20593;SDS011;10455;48.732;10.266;2022-09-04T16:45:08;2.95;;;1.50;;
20593;SDS011;10455;48.732;10.266;2022-09-04T16:50:18;1.73;;;1.63;;
20593;SDS011;10455;48.732;10.266;2022-09-04T16:55:27;2.10;;;1.90;;
20593;SDS011;10455;48.732;10.266;2022-09-04T17:00:48;2.42;;;1.38;;
20593;SDS011;10455;48.732;10.266;2022-09-04T17:06:00;3.47;;;1.70;;
20593;SDS011;10455;48.732;10.266;2022-09-04T17:11:08;3.90;;;1.75;;
20593;SDS011;10455;48.732;10.266;2022-09-04T17:16:17;2.17;;;1.98;;
20593;SDS011;10455;48.732;10.266;2022-09-04T17:21:23;2.38;;;1.70;;
20593;SDS011;10455;48.732;10.266;2022-09-04T17:26:45;4.13;;;1.73;;
20593;SDS011;10455;48.732;10.266;2022-09-04T17:31:55;1.92;;;1.80;;
20593;SDS011;10455;48.732;10.266;2022-09-04T17:37:01;2.00;;;1.80;;
20593;SDS011;10455;48.732;10.266;2022-09-04T17:42:12;1.92;;;1.80;;
20593;SDS011;10455;48.732;10.266;2022-09-04T17:47:26;2.08;;;1.88;;
20593;SDS011;10455;48.732;10.266;2022-09-04T17:52:32;1.90;;;1.80;;
20593;SDS011;10455;48.732;10.266;2022-09-04T17:57:44;2.20;;;2.00;;
20593;SDS011;10455;48.732;10.266;2022-09-04T18:02:57;2.38;;;2.13;;
20593;SDS011;10455;48.732;10.266;2022-09-04T18:08:03;2.28;;;2.08;;
20593;SDS011;10455;48.732;10.266;2022-09-04T18:13:13;2.38;;;2.17;;
20593;SDS011;10455;48.732;10.266;2022-09-04T18:18:21;1.90;;;1.80;;
20593;SDS011;10455;48.732;10.266;2022-09-04T18:23:47;2.25;;;2.05;;
20593;SDS011;10455;48.732;10.266;2022-09-04T18:28:57;4.22;;;2.00;;
20593;SDS011;10455;48.732;10.266;2022-09-04T18:34:13;2.45;;;2.25;;
20593;SDS011;10455;48.732;10.266;2022-09-04T18:39:29;2.40;;;2.20;;
20593;SDS011;10455;48.732;10.266;2022-09-04T18:44:37;3.15;;;2.28;;
20593;SDS011;10455;48.732;10.266;2022-09-04T18:49:51;2.58;;;2.38;;
20593;SDS011;10455;48.732;10.266;2022-09-04T18:54:56;3.97;;;2.65;;
20593;SDS011;10455;48.732;10.266;2022-09-04T19:00:04;3.20;;;2.70;;
20593;SDS011;10455;48.732;10.266;2022-09-04T19:05:10;3.15;;;2.80;;
20593;SDS011;10455;48.732;10.266;2022-09-04T19:10:16;3.05;;;2.67;;
20593;SDS011;10455;48.732;10.266;2022-09-04T19:15:34;2.63;;;2.43;;
20593;SDS011;10455;48.732;10.266;2022-09-04T19:20:50;2.80;;;2.60;;
20593;SDS011;10455;48.732;10.266;2022-09-04T19:25:57;2.97;;;2.70;;
20593;SDS011;10455;48.732;10.266;2022-09-04T19:31:03;3.10;;;2.90;;
20593;SDS011;10455;48.732;10.266;2022-09-04T19:36:11;3.10;;;2.80;;
20593;SDS011;10455;48.732;10.266;2022-09-04T19:41:24;4.77;;;4.00;;
20593;SDS011;10455;48.732;10.266;2022-09-04T19:46:31;4.77;;;3.10;;
20593;SDS011;10455;48.732;10.266;2022-09-04T19:51:54;2.87;;;2.67;;
20593;SDS011;10455;48.732;10.266;2022-09-04T19:57:09;3.47;;;3.17;;
20593;SDS011;10455;48.732;10.266;2022-09-04T20:02:21;4.47;;;3.20;;
20593;SDS011;10455;48.732;10.266;2022-09-04T20:07:36;3.77;;;3.07;;
20593;SDS011;10455;48.732;10.266;2022-09-04T20:12:47;3.90;;;2.90;;
20593;SDS011;10455;48.732;10.266;2022-09-04T20:18:06;4.37;;;3.37;;
20593;SDS011;10455;48.732;10.266;2022-09-04T20:23:13;4.97;;;3.10;;
20593;SDS011;10455;48.732;10.266;2022-09-04T20:33:50;6.20;;;3.77;;
20593;SDS011;10455;48.732;10.266;2022-09-04T20:38:59;4.83;;;3.93;;
20593;SDS011;10455;48.732;10.266;2022-09-04T20:44:11;4.67;;;4.27;;
20593;SDS011;10455;48.732;10.266;2022-09-04T20:49:20;5.60;;;4.03;;
20593;SDS011;10455;48.732;10.266;2022-09-04T20:54:43;4.30;;;3.67;;
20593;SDS011;10455;48.732;10.266;2022-09-04T20:59:55;5.03;;;4.07;;
20593;SDS011;10455;48.732;10.266;2022-09-04T21:05:12;7.07;;;3.80;;
20593;SDS011;10455;48.732;10.266;2022-09-04T21:10:34;4.40;;;4.00;;
20593;SDS011;10455;48.732;10.266;2022-09-04T21:15:42;4.10;;;3.80;;
20593;SDS011;10455;48.732;10.266;2022-09-04T21:20:56;4.80;;;4.40;;
20593;SDS011;10455;48.732;10.266;2022-09-04T21:26:16;6.40;;;3.97;;
20593;SDS011;10455;48.732;10.266;2022-09-04T21:31:33;4.00;;;3.70;;
20593;SDS011;10455;48.732;10.266;2022-09-04T21:36:52;5.90;;;5.30;;
20593;SDS011;10455;48.732;10.266;2022-09-04T21:42:07;5.20;;;4.60;;
20593;SDS011;10455;48.732;10.266;2022-09-04T21:47:24;5.30;;;4.90;;
20593;SDS011;10455;48.732;10.266;2022-09-04T21:52:44;5.87;;;4.80;;
20593;SDS011;10455;48.732;10.266;2022-09-04T21:58:12;5.27;;;4.87;;
20593;SDS011;10455;48.732;10.266;2022-09-04T22:03:33;6.83;;;5.33;;
20593;SDS011;10455;48.732;10.266;2022-09-04T22:08:46;5.83;;;4.80;;
20593;SDS011;10455;48.732;10.266;2022-09-04T22:14:00;5.13;;;4.63;;
20593;SDS011;10455;48.732;10.266;2022-09-04T22:25:04;6.20;;;5.60;;
20593;SDS011;10455;48.732;10.266;2022-09-04T22:30:19;5.17;;;4.70;;
20593;SDS011;10455;48.732;10.266;2022-09-04T22:41:24;6.30;;;5.00;;
20593;SDS011;10455;48.732;10.266;2022-09-04T22:52:32;5.23;;;4.83;;
20593;SDS011;10455;48.732;10.266;2022-09-04T22:57:43;5.60;;;4.90;;
20593;SDS011;10455;48.732;10.266;2022-09-04T23:08:24;6.57;;;6.00;;
20593;SDS011;10455;48.732;10.266;2022-09-04T23:13:41;5.53;;;5.03;;
20593;SDS011;10455;48.732;10.266;2022-09-04T23:19:02;6.10;;;5.50;;
20593;SDS011;10455;48.732;10.266;2022-09-04T23:24:23;6.77;;;6.07;;
20593;SDS011;10455;48.732;10.266;2022-09-04T23:29:46;9.50;;;5.70;;
20593;SDS011;10455;48.732;10.266;2022-09-04T23:35:23;6.20;;;5.60;;
20593;SDS011;10455;48.732;10.266;2022-09-04T23:40:38;6.53;;;6.03;;
20593;SDS011;10455;48.732;10.266;2022-09-04T23:51:22;5.60;;;5.10;;
20593;SDS011;10455;48.732;10.266;2022-09-04T23:56:31;6.00;;;5.50;;
